Time;durP1;ratioP1;P1;durP2;ratioP2;P2;SDS_P1;SDS_P2;PMS_P1;PMS_P2;Temp;Humidity;BMP_temperature;BMP_pressure;BME280_temperature;BME280_humidity;BME280_pressure;Samples;Min_cycle;Max_cycle;Signal;HPM_P1;HPM_P2
2022/12/13 00:01:16;;;;;;;22.70;11.60;;;-0.20;99.90;;;;;;5038760;28;20762;-70
2022/12/13 00:03:42;;;;;;;18.13;10.40;;;-0.20;99.90;;;;;;5045486;28;20223;-68
2022/12/13 00:06:10;;;;;;;18.50;10.20;;;-0.30;99.90;;;;;;5047509;28;20199;-68
2022/12/13 00:08:36;;;;;;;22.27;12.17;;;-0.20;99.90;;;;;;5047519;28;20286;-69
2022/12/13 00:11:03;;;;;;;21.60;11.93;;;-0.20;99.90;;;;;;5043512;28;20209;-70
2022/12/13 00:13:29;;;;;;;23.07;11.77;;;-0.20;99.90;;;;;;5043017;28;20239;-69
2022/12/13 00:16:00;;;;;;;22.83;11.80;;;-0.10;99.90;;;;;;5048896;28;20238;-69
2022/12/13 00:18:26;;;;;;;19.03;11.10;;;-0.30;99.90;;;;;;5052300;28;20184;-67
2022/12/13 00:20:52;;;;;;;21.03;11.37;;;-0.20;99.90;;;;;;5046766;28;20186;-68
2022/12/13 00:23:18;;;;;;;22.63;11.37;;;-0.20;99.90;;;;;;5046678;28;20228;-69
2022/12/13 00:25:43;;;;;;;17.67;11.03;;;-0.30;99.90;;;;;;5048969;28;20241;-68
2022/12/13 00:28:10;;;;;;;19.80;10.97;;;-0.20;99.90;;;;;;5048314;28;20238;-69
2022/12/13 00:30:36;;;;;;;18.80;10.60;;;-0.30;99.90;;;;;;5049770;28;20209;-69
2022/12/13 00:33:02;;;;;;;22.50;10.80;;;-0.30;99.90;;;;;;5052201;28;20188;-68
2022/12/13 00:35:28;;;;;;;19.17;10.73;;;-0.30;99.90;;;;;;5048912;28;20260;-69
2022/12/13 00:37:53;;;;;;;21.70;11.50;;;-0.20;99.90;;;;;;5050445;28;20213;-67
2022/12/13 00:40:20;;;;;;;17.87;10.10;;;-0.30;99.90;;;;;;5052023;28;20206;-69
2022/12/13 00:42:45;;;;;;;20.00;10.47;;;-0.30;99.90;;;;;;5051834;28;20217;-70
2022/12/13 00:45:11;;;;;;;21.30;11.93;;;-0.30;99.90;;;;;;5054664;28;20816;-69
2022/12/13 00:47:37;;;;;;;21.57;10.40;;;-0.30;99.90;;;;;;5055677;28;20262;-69
2022/12/13 00:50:04;;;;;;;19.17;9.70;;;-0.30;99.90;;;;;;5053036;28;20222;-67
2022/12/13 00:52:29;;;;;;;24.37;11.10;;;-0.20;99.90;;;;;;5055401;28;20754;-69
2022/12/13 00:54:55;;;;;;;19.40;10.27;;;-0.20;99.90;;;;;;5048934;28;20240;-67
2022/12/13 00:57:20;;;;;;;18.97;9.97;;;-0.20;99.90;;;;;;5052158;28;20176;-69
2022/12/13 00:59:46;;;;;;;21.20;10.40;;;-0.20;99.90;;;;;;5051739;28;20632;-68
2022/12/13 01:02:12;;;;;;;18.13;9.90;;;-0.30;99.90;;;;;;5044101;28;20215;-69
2022/12/13 01:04:37;;;;;;;20.93;10.20;;;-0.30;99.90;;;;;;5049958;28;20239;-69
2022/12/13 01:07:03;;;;;;;17.60;9.20;;;-0.30;99.90;;;;;;5045586;28;20238;-70
2022/12/13 01:09:31;;;;;;;18.43;9.73;;;-0.20;99.90;;;;;;5046396;28;20218;-69
2022/12/13 01:12:03;;;;;;;19.17;9.87;;;-0.20;99.90;;;;;;5050139;28;20177;-67
2022/12/13 01:14:29;;;;;;;18.03;10.50;;;-0.20;99.90;;;;;;5045773;28;20210;-69
2022/12/13 01:16:55;;;;;;;21.40;9.77;;;-0.30;99.90;;;;;;5047963;28;20209;-68
2022/12/13 01:19:25;;;;;;;16.10;9.33;;;-0.30;99.90;;;;;;5051516;28;20204;-68
2022/12/13 01:21:55;;;;;;;21.30;10.93;;;-0.30;99.90;;;;;;5042495;28;20216;-69
2022/12/13 01:24:23;;;;;;;16.30;9.43;;;-0.30;99.90;;;;;;5047489;28;20253;-69
2022/12/13 01:26:49;;;;;;;17.53;10.40;;;-0.20;99.90;;;;;;5051925;28;20195;-69
2022/12/13 01:29:16;;;;;;;20.00;11.80;;;-0.30;99.90;;;;;;5043026;28;20207;-67
2022/12/13 01:31:42;;;;;;;20.93;10.80;;;-0.20;99.90;;;;;;5050920;28;20200;-68
2022/12/13 01:34:12;;;;;;;19.60;10.77;;;-0.20;99.90;;;;;;5049986;28;20261;-69
2022/12/13 01:36:40;;;;;;;21.53;11.50;;;-0.20;99.90;;;;;;5049844;28;20206;-69
2022/12/13 01:39:06;;;;;;;21.00;11.60;;;-0.20;99.90;;;;;;5049472;28;20196;-69
2022/12/13 01:41:33;;;;;;;22.43;10.87;;;-0.10;99.90;;;;;;5044820;28;20753;-68
2022/12/13 01:44:01;;;;;;;20.73;11.43;;;-0.30;99.90;;;;;;5046458;28;20213;-69
2022/12/13 01:46:29;;;;;;;21.97;11.97;;;-0.30;99.90;;;;;;5047154;28;20223;-68
2022/12/13 01:49:09;;;;;;;21.00;11.80;;;-0.30;99.90;;;;;;5048470;28;20214;-69
2022/12/13 01:51:41;;;;;;;21.80;11.47;;;-0.20;99.90;;;;;;5044013;28;20588;-68
2022/12/13 01:54:11;;;;;;;20.40;10.93;;;-0.30;99.90;;;;;;5052114;28;20174;-70
2022/12/13 01:56:43;;;;;;;19.33;10.47;;;-0.30;99.90;;;;;;5047919;28;20298;-67
2022/12/13 01:59:11;;;;;;;21.37;12.07;;;-0.30;99.90;;;;;;5048695;28;20204;-67
2022/12/13 02:01:37;;;;;;;18.57;10.03;;;-0.30;99.90;;;;;;5044756;28;20210;-69
2022/12/13 02:04:03;;;;;;;19.60;10.70;;;-0.40;99.90;;;;;;5045413;28;20299;-69
2022/12/13 02:06:33;;;;;;;20.60;10.40;;;-0.30;99.90;;;;;;5050985;28;20308;-69
2022/12/13 02:09:01;;;;;;;17.97;10.40;;;-0.30;99.90;;;;;;5047098;28;20174;-70
2022/12/13 02:11:28;;;;;;;17.37;9.90;;;-0.20;99.90;;;;;;5049811;28;20219;-68
2022/12/13 02:13:53;;;;;;;19.40;10.90;;;-0.30;99.90;;;;;;5050361;28;20213;-69
2022/12/13 02:16:37;;;;;;;19.97;10.73;;;-0.30;99.90;;;;;;5039983;28;20618;-69
2022/12/13 02:19:28;;;;;;;22.77;12.10;;;-0.30;99.90;;;;;;5045394;28;20205;-69
2022/12/13 02:22:15;;;;;;;20.63;10.87;;;-0.30;99.90;;;;;;5043957;28;20209;-66
2022/12/13 02:25:19;;;;;;;19.43;11.47;;;-0.30;99.90;;;;;;5044410;28;20207;-70
2022/12/13 02:27:57;;;;;;;21.53;10.73;;;-0.40;99.90;;;;;;5004064;28;20210;-68
2022/12/13 02:30:33;;;;;;;20.50;11.13;;;-0.30;99.90;;;;;;5043455;28;20177;-70
2022/12/13 02:33:01;;;;;;;19.73;11.00;;;-0.30;99.90;;;;;;5050191;28;20309;-70
2022/12/13 02:35:30;;;;;;;20.53;10.83;;;-0.30;99.90;;;;;;5043175;28;20319;-69
2022/12/13 02:37:56;;;;;;;18.87;10.53;;;-0.40;99.90;;;;;;5041752;28;20282;-65
2022/12/13 02:40:37;;;;;;;22.83;11.80;;;-0.40;99.90;;;;;;5048756;28;20200;-69
2022/12/13 02:43:12;;;;;;;21.53;11.27;;;-0.40;99.90;;;;;;5041953;28;20618;-69
2022/12/13 02:45:48;;;;;;;22.50;11.43;;;-0.30;99.90;;;;;;5043942;28;20648;-69
2022/12/13 02:48:18;;;;;;;21.10;11.47;;;-0.40;99.90;;;;;;5050581;28;20260;-67
2022/12/13 02:50:45;;;;;;;22.17;12.03;;;-0.30;99.90;;;;;;5042035;28;20179;-69
2022/12/13 02:53:12;;;;;;;19.80;11.27;;;-0.30;99.90;;;;;;5048518;28;20234;-69
2022/12/13 02:55:39;;;;;;;21.13;12.20;;;-0.40;99.90;;;;;;5047659;28;20258;-70
2022/12/13 02:58:05;;;;;;;21.53;12.43;;;-0.30;99.90;;;;;;5043418;28;20301;-69
2022/12/13 03:01:02;;;;;;;22.67;12.67;;;-0.40;99.90;;;;;;5047379;28;20268;-69
2022/12/13 03:04:11;;;;;;;21.40;11.20;;;-0.40;99.90;;;;;;5048785;28;21454;-69
2022/12/13 03:07:01;;;;;;;23.73;12.50;;;-0.50;99.90;;;;;;4996350;28;20214;-69
2022/12/13 03:09:47;;;;;;;19.17;10.80;;;-0.40;99.90;;;;;;5040274;28;20195;-70
2022/12/13 03:15:25;;;;;;;21.70;11.83;;;-0.40;99.90;;;;;;5047254;28;20614;-69
2022/12/13 03:18:05;;;;;;;20.33;11.13;;;-0.40;99.90;;;;;;5046204;28;20205;-68
2022/12/13 03:20:31;;;;;;;24.53;12.97;;;-0.40;99.90;;;;;;5044668;28;20208;-69
2022/12/13 03:22:57;;;;;;;21.07;12.00;;;-0.30;99.90;;;;;;5049877;28;20216;-67
2022/12/13 03:25:29;;;;;;;22.37;12.73;;;-0.30;99.90;;;;;;5045276;28;20636;-69
2022/12/13 03:27:55;;;;;;;22.33;11.93;;;-0.30;99.90;;;;;;5048524;28;20930;-69
2022/12/13 03:30:20;;;;;;;23.50;11.90;;;-0.20;99.90;;;;;;5041052;28;20170;-69
2022/12/13 03:32:46;;;;;;;21.20;12.10;;;-0.30;99.90;;;;;;5047458;28;20186;-69
2022/12/13 03:35:12;;;;;;;19.63;10.83;;;-0.20;99.90;;;;;;5046384;28;20236;-69
2022/12/13 03:37:37;;;;;;;19.83;11.80;;;-0.30;99.90;;;;;;5044301;28;20399;-69
2022/12/13 03:40:03;;;;;;;21.17;11.83;;;-0.30;99.90;;;;;;5046269;28;20262;-69
2022/12/13 03:42:29;;;;;;;22.73;11.70;;;-0.30;99.90;;;;;;5049715;28;20218;-69
2022/12/13 03:44:55;;;;;;;22.00;11.33;;;-0.40;99.90;;;;;;5045495;28;20207;-69
2022/12/13 03:47:20;;;;;;;19.47;11.10;;;-0.40;99.90;;;;;;5049085;28;20201;-69
2022/12/13 03:49:46;;;;;;;21.00;11.80;;;-0.30;99.90;;;;;;5046165;28;20207;-68
2022/12/13 03:52:11;;;;;;;19.73;11.93;;;-0.50;99.90;;;;;;5051963;28;20210;-68
2022/12/13 03:54:37;;;;;;;24.10;12.87;;;-0.40;99.90;;;;;;5053241;28;20292;-69
2022/12/13 03:57:03;;;;;;;18.80;11.93;;;-0.30;99.90;;;;;;5046509;28;20226;-69
2022/12/13 03:59:28;;;;;;;21.97;12.10;;;-0.30;99.90;;;;;;5050103;28;20704;-68
2022/12/13 04:01:54;;;;;;;21.97;11.73;;;-0.30;99.90;;;;;;5052080;28;20586;-66
2022/12/13 04:04:19;;;;;;;19.90;11.53;;;-0.30;99.90;;;;;;5053627;28;20286;-68
2022/12/13 04:06:45;;;;;;;21.23;11.80;;;-0.40;99.90;;;;;;5053484;28;20212;-67
2022/12/13 04:09:11;;;;;;;19.07;10.57;;;-0.30;99.90;;;;;;5053107;28;20180;-68
2022/12/13 04:14:20;;;;;;;21.27;12.70;;;-0.30;99.90;;;;;;5053685;28;20206;-68
2022/12/13 04:16:46;;;;;;;21.33;11.60;;;-0.30;99.90;;;;;;5053304;28;20577;-68
2022/12/13 04:19:12;;;;;;;18.10;10.67;;;-0.40;99.90;;;;;;5052899;28;20224;-68
2022/12/13 04:21:37;;;;;;;21.03;11.40;;;-0.30;99.90;;;;;;5051569;28;20287;-70
2022/12/13 04:24:03;;;;;;;21.10;11.20;;;-0.40;99.90;;;;;;5052177;28;20271;-68
2022/12/13 04:26:29;;;;;;;17.07;10.27;;;-0.40;99.90;;;;;;5051765;28;20294;-68
2022/12/13 04:28:55;;;;;;;20.67;11.40;;;-0.30;99.90;;;;;;5049511;28;20201;-68
2022/12/13 04:31:21;;;;;;;20.87;11.53;;;-0.40;99.90;;;;;;5052636;28;20229;-69
2022/12/13 04:33:47;;;;;;;22.70;10.67;;;-0.30;99.90;;;;;;5053163;28;20722;-68
2022/12/13 04:36:18;;;;;;;17.53;10.27;;;-0.40;99.90;;;;;;5052791;28;20284;-69
2022/12/13 04:38:45;;;;;;;20.80;11.00;;;-0.40;99.90;;;;;;5050252;28;20543;-67
2022/12/13 04:41:16;;;;;;;19.63;10.20;;;-0.30;99.90;;;;;;5050612;28;20209;-66
2022/12/13 04:43:42;;;;;;;20.87;10.90;;;-0.30;99.90;;;;;;5051500;28;20209;-68
2022/12/13 04:46:08;;;;;;;20.67;11.33;;;-0.30;99.90;;;;;;5063619;23;20215;-69
2022/12/13 04:48:33;;;;;;;17.60;10.20;;;-0.30;99.90;;;;;;5031526;28;20570;-69
2022/12/13 04:51:00;;;;;;;19.77;10.73;;;-0.30;99.90;;;;;;5030988;28;20232;-68
2022/12/13 04:53:26;;;;;;;21.70;12.27;;;-0.30;99.90;;;;;;5031368;28;20836;-69
2022/12/13 04:55:51;;;;;;;20.90;11.23;;;-0.30;99.90;;;;;;5031241;28;20734;-69
2022/12/13 04:58:18;;;;;;;22.63;12.20;;;-0.30;99.90;;;;;;5037400;28;20206;-68
2022/12/13 05:00:44;;;;;;;24.17;13.05;;;-0.30;99.90;;;;;;5049870;28;20914;-69
2022/12/13 05:03:09;;;;;;;20.33;11.53;;;-0.30;99.90;;;;;;5052400;28;20212;-69
2022/12/13 05:05:39;;;;;;;20.30;11.03;;;-0.30;99.90;;;;;;5051718;28;20191;-69
2022/12/13 05:08:05;;;;;;;23.13;12.13;;;-0.20;99.90;;;;;;5050582;28;20726;-69
2022/12/13 05:10:31;;;;;;;21.57;11.70;;;-0.30;99.90;;;;;;5050286;28;20562;-69
2022/12/13 05:12:58;;;;;;;19.30;11.53;;;-0.30;99.90;;;;;;5050210;28;20301;-69
2022/12/13 05:15:23;;;;;;;23.30;11.80;;;-0.40;99.90;;;;;;5050358;28;20266;-71
2022/12/13 05:17:49;;;;;;;22.07;12.13;;;-0.50;99.90;;;;;;5051568;28;20230;-70
2022/12/13 05:20:15;;;;;;;23.70;12.67;;;-0.50;99.90;;;;;;5051321;28;20748;-69
2022/12/13 05:22:40;;;;;;;21.97;12.00;;;-0.50;99.90;;;;;;5050498;28;20223;-68
2022/12/13 05:25:06;;;;;;;21.00;11.43;;;-0.40;99.90;;;;;;5050563;28;20215;-69
2022/12/13 05:27:32;;;;;;;23.03;12.07;;;-0.40;99.90;;;;;;5048853;28;20214;-69
2022/12/13 05:29:58;;;;;;;20.50;11.30;;;-0.40;99.90;;;;;;5050318;28;20185;-67
2022/12/13 05:32:23;;;;;;;22.27;11.87;;;-0.40;99.90;;;;;;5052021;28;20209;-69
2022/12/13 05:34:49;;;;;;;21.30;11.87;;;-0.40;99.90;;;;;;5051114;28;20210;-69
2022/12/13 05:37:14;;;;;;;20.10;11.27;;;-0.40;99.90;;;;;;5050431;28;20217;-68
2022/12/13 05:39:40;;;;;;;22.27;11.87;;;-0.30;99.90;;;;;;5049982;28;20214;-69
2022/12/13 05:42:06;;;;;;;20.53;11.17;;;-0.30;99.90;;;;;;5050720;28;20180;-69
2022/12/13 05:44:32;;;;;;;23.20;12.30;;;-0.40;99.90;;;;;;5050642;28;20217;-69
2022/12/13 05:46:58;;;;;;;19.77;10.73;;;-0.40;99.90;;;;;;5047589;28;20304;-69
2022/12/13 05:49:24;;;;;;;19.50;12.00;;;-0.40;99.90;;;;;;5049653;28;20337;-69
2022/12/13 05:51:50;;;;;;;19.00;10.63;;;-0.40;99.90;;;;;;5050312;28;20345;-70
2022/12/13 05:54:15;;;;;;;20.33;11.93;;;-0.40;99.90;;;;;;5050010;28;20718;-69
2022/12/13 05:56:41;;;;;;;23.37;11.87;;;-0.50;99.90;;;;;;5050476;28;20700;-69
2022/12/13 05:59:07;;;;;;;20.50;10.97;;;-0.50;99.90;;;;;;5050509;28;20547;-69
2022/12/13 06:01:32;;;;;;;21.20;11.50;;;-0.50;99.90;;;;;;5050880;28;20289;-69
2022/12/13 06:03:58;;;;;;;19.40;11.00;;;-0.50;99.90;;;;;;5050885;28;20230;-71
2022/12/13 06:06:24;;;;;;;19.90;11.33;;;-0.50;99.90;;;;;;5050203;28;20282;-69
2022/12/13 06:08:49;;;;;;;24.70;12.33;;;-0.40;99.90;;;;;;5048354;28;20254;-71
2022/12/13 06:11:15;;;;;;;23.67;12.57;;;-0.50;99.90;;;;;;5041982;28;20258;-69
2022/12/13 06:13:41;;;;;;;20.37;11.47;;;-0.40;99.90;;;;;;5045014;28;20206;-71
2022/12/13 06:16:07;;;;;;;20.13;11.77;;;-0.40;99.90;;;;;;5049010;28;20224;-68
2022/12/13 06:18:34;;;;;;;20.63;10.80;;;-0.40;99.90;;;;;;5043667;28;20217;-69
2022/12/13 06:21:03;;;;;;;23.30;12.50;;;-0.40;99.90;;;;;;5048373;28;20208;-69
2022/12/13 06:23:30;;;;;;;20.00;11.60;;;-0.50;99.90;;;;;;5046747;28;20689;-69
2022/12/13 06:25:56;;;;;;;22.17;11.87;;;-0.40;99.90;;;;;;5042857;28;20563;-69
2022/12/13 06:28:22;;;;;;;24.77;13.17;;;-0.50;99.90;;;;;;5046860;28;20216;-69
2022/12/13 06:30:51;;;;;;;22.90;14.07;;;-0.50;99.90;;;;;;5045230;28;20217;-70
2022/12/13 06:33:20;;;;;;;22.13;12.33;;;-0.60;99.90;;;;;;5041793;28;20264;-69
2022/12/13 06:35:46;;;;;;;26.13;13.50;;;-0.60;99.90;;;;;;5050022;28;20183;-67
2022/12/13 06:38:12;;;;;;;23.33;13.23;;;-0.60;99.90;;;;;;5042775;28;20214;-68
2022/12/13 06:40:38;;;;;;;27.33;13.10;;;-0.60;99.90;;;;;;5044174;28;20366;-69
2022/12/13 06:43:04;;;;;;;23.37;13.07;;;-0.70;99.90;;;;;;5043227;28;20319;-69
2022/12/13 06:45:30;;;;;;;23.53;13.57;;;-0.70;99.90;;;;;;5043305;28;20239;-69
2022/12/13 06:47:56;;;;;;;23.30;13.23;;;-0.60;99.90;;;;;;5045024;28;20214;-69
2022/12/13 06:50:22;;;;;;;24.83;13.67;;;-0.60;99.90;;;;;;5047227;28;20242;-68
2022/12/13 06:52:47;;;;;;;23.73;14.30;;;-0.60;99.90;;;;;;5043349;28;20265;-69
2022/12/13 06:55:13;;;;;;;26.00;13.40;;;-0.60;99.90;;;;;;5044365;28;20636;-69
2022/12/13 06:57:39;;;;;;;28.87;14.03;;;-0.50;99.90;;;;;;5046257;28;20710;-69
2022/12/13 07:00:06;;;;;;;26.17;13.87;;;-0.70;99.90;;;;;;5042306;28;20268;-66
2022/12/13 07:02:31;;;;;;;30.17;15.00;;;-0.70;99.90;;;;;;5046553;28;20207;-69
2022/12/13 07:04:57;;;;;;;24.00;13.40;;;-0.60;99.90;;;;;;5045609;28;20237;-68
2022/12/13 07:07:24;;;;;;;24.77;13.70;;;-0.60;99.90;;;;;;5046005;28;20591;-69
2022/12/13 07:09:50;;;;;;;32.13;15.97;;;-0.60;99.90;;;;;;5042393;28;20263;-68
2022/12/13 07:12:16;;;;;;;29.27;15.03;;;-0.70;99.90;;;;;;5042793;28;20176;-69
2022/12/13 07:14:41;;;;;;;30.70;15.37;;;-0.60;99.90;;;;;;5049518;28;20601;-69
2022/12/13 07:17:07;;;;;;;35.10;15.67;;;-0.60;99.90;;;;;;5044852;28;20236;-69
2022/12/13 07:19:33;;;;;;;30.50;15.97;;;-0.70;99.90;;;;;;5040552;28;20213;-69
2022/12/13 07:21:59;;;;;;;30.10;16.10;;;-0.70;99.90;;;;;;5041904;28;20233;-69
2022/12/13 07:24:24;;;;;;;28.43;16.13;;;-0.60;99.90;;;;;;5045325;28;20263;-69
2022/12/13 07:26:50;;;;;;;31.47;15.10;;;-0.70;99.90;;;;;;5044342;28;20204;-70
2022/12/13 07:29:15;;;;;;;28.03;15.30;;;-0.70;99.90;;;;;;5045757;28;20206;-69
2022/12/13 07:31:41;;;;;;;30.00;16.07;;;-0.60;99.90;;;;;;5045446;28;20200;-69
2022/12/13 07:34:07;;;;;;;30.97;16.17;;;-0.60;99.90;;;;;;5042397;28;20211;-68
2022/12/13 07:36:32;;;;;;;26.47;15.23;;;-0.60;99.90;;;;;;5047276;28;20342;-69
2022/12/13 07:38:58;;;;;;;31.63;16.13;;;-0.70;99.90;;;;;;5044301;28;20212;-68
2022/12/13 07:41:25;;;;;;;30.53;15.47;;;-0.70;99.90;;;;;;5041973;28;20291;-69
2022/12/13 07:43:52;;;;;;;31.87;15.93;;;-0.70;99.90;;;;;;5046783;28;20214;-69
2022/12/13 07:46:18;;;;;;;29.63;16.57;;;-0.60;99.90;;;;;;5038694;28;20209;-69
2022/12/13 07:48:43;;;;;;;28.70;14.80;;;-0.70;99.90;;;;;;5042453;28;20778;-69
2022/12/13 07:51:13;;;;;;;27.30;15.80;;;-0.70;99.90;;;;;;5040786;28;20188;-69
2022/12/13 07:53:39;;;;;;;26.63;15.27;;;-0.80;99.90;;;;;;5043396;28;20197;-69
2022/12/13 07:56:07;;;;;;;30.13;15.00;;;-0.80;99.90;;;;;;5054548;28;20212;-67
2022/12/13 07:58:33;;;;;;;33.37;16.27;;;-0.70;99.90;;;;;;5046494;28;20220;-69
2022/12/13 08:01:01;;;;;;;26.57;15.43;;;-0.70;99.90;;;;;;5041354;28;20212;-68
2022/12/13 08:03:28;;;;;;;31.97;17.07;;;-0.70;99.90;;;;;;5047499;28;20197;-69
2022/12/13 08:06:04;;;;;;;28.87;16.03;;;-0.70;99.90;;;;;;5041286;28;20209;-69
2022/12/13 08:08:30;;;;;;;34.53;16.47;;;-0.70;99.90;;;;;;5043433;28;20205;-71
2022/12/13 08:11:00;;;;;;;35.50;17.57;;;-0.70;99.90;;;;;;5045646;28;20211;-71
2022/12/13 08:13:26;;;;;;;27.80;16.53;;;-0.50;99.90;;;;;;5041390;28;20215;-71
2022/12/13 08:15:57;;;;;;;29.13;15.07;;;-0.60;99.90;;;;;;5044812;28;20229;-69
2022/12/13 08:18:23;;;;;;;30.77;15.83;;;-0.50;99.90;;;;;;5045037;28;20228;-68
2022/12/13 08:20:48;;;;;;;28.93;15.83;;;-0.50;99.90;;;;;;5043967;28;20179;-69
2022/12/13 08:23:14;;;;;;;31.93;16.43;;;-0.50;99.90;;;;;;5045081;28;20240;-69
2022/12/13 08:25:40;;;;;;;30.10;16.03;;;-0.40;99.90;;;;;;5045894;28;20203;-69
2022/12/13 08:28:05;;;;;;;27.50;15.63;;;-0.50;99.90;;;;;;5041012;28;20216;-69
2022/12/13 08:30:31;;;;;;;28.90;15.77;;;-0.50;99.90;;;;;;5045567;28;20732;-69
2022/12/13 08:32:57;;;;;;;28.80;15.43;;;-0.50;99.90;;;;;;5045346;28;20645;-68
2022/12/13 08:35:26;;;;;;;27.17;15.30;;;-0.60;99.90;;;;;;5043596;28;20219;-68
2022/12/13 08:37:52;;;;;;;29.13;16.10;;;-0.60;99.90;;;;;;5051295;28;20246;-69
2022/12/13 08:40:18;;;;;;;32.00;17.10;;;-0.60;99.90;;;;;;5042733;28;20627;-69
2022/12/13 08:42:43;;;;;;;31.50;15.93;;;-0.70;99.90;;;;;;5050025;28;20219;-69
2022/12/13 08:45:10;;;;;;;29.83;15.77;;;-0.60;99.90;;;;;;5047717;28;20178;-68
2022/12/13 08:47:35;;;;;;;31.23;16.93;;;-0.60;99.90;;;;;;5045036;28;20213;-69
2022/12/13 08:50:01;;;;;;;33.83;17.37;;;-0.40;99.90;;;;;;5046655;28;20210;-69
2022/12/13 08:52:26;;;;;;;31.47;17.43;;;-0.40;99.90;;;;;;5049249;28;20234;-69
2022/12/13 08:54:52;;;;;;;30.03;16.60;;;-0.50;99.90;;;;;;5048103;28;20213;-69
2022/12/13 08:57:18;;;;;;;27.57;15.90;;;-0.40;99.90;;;;;;5049401;28;20202;-69
2022/12/13 08:59:44;;;;;;;30.30;17.33;;;-0.40;99.90;;;;;;5047873;28;20182;-70
2022/12/13 09:02:13;;;;;;;27.40;15.57;;;-0.30;99.90;;;;;;5044226;28;20214;-68
2022/12/13 09:04:39;;;;;;;32.77;17.50;;;-0.20;99.90;;;;;;5049712;28;20568;-69
2022/12/13 09:07:05;;;;;;;31.43;16.40;;;-0.20;99.90;;;;;;5043690;28;20236;-68
2022/12/13 09:09:31;;;;;;;28.07;15.77;;;0.00;99.90;;;;;;5047100;28;20292;-68
2022/12/13 09:11:57;;;;;;;34.07;16.40;;;-0.20;99.90;;;;;;5056275;28;20176;-69
2022/12/13 09:14:22;;;;;;;29.27;14.73;;;-0.20;99.90;;;;;;5043243;28;20910;-70
2022/12/13 09:16:48;;;;;;;31.33;16.43;;;-0.30;99.90;;;;;;5047988;28;20237;-69
2022/12/13 09:19:14;;;;;;;27.30;14.20;;;-0.30;99.90;;;;;;5046333;28;20265;-70
2022/12/13 09:21:39;;;;;;;33.90;16.27;;;-0.30;99.90;;;;;;5044835;28;20206;-71
2022/12/13 09:24:05;;;;;;;27.67;15.30;;;-0.40;99.90;;;;;;5047957;28;20286;-70
2022/12/13 09:26:31;;;;;;;31.37;16.03;;;-0.30;99.90;;;;;;5047672;28;20209;-70
2022/12/13 09:28:56;;;;;;;33.00;16.07;;;-0.40;99.90;;;;;;5045052;28;20253;-69
2022/12/13 09:31:22;;;;;;;29.63;15.57;;;-0.30;99.90;;;;;;5047331;28;20575;-71
2022/12/13 09:33:47;;;;;;;31.13;16.03;;;-0.40;99.90;;;;;;5043903;28;20221;-70
2022/12/13 09:36:19;;;;;;;31.17;15.80;;;-0.50;99.90;;;;;;5044490;28;20199;-70
2022/12/13 09:38:45;;;;;;;25.73;14.67;;;-0.40;99.90;;;;;;5051353;28;20172;-69
2022/12/13 09:41:20;;;;;;;30.07;15.73;;;-0.40;99.90;;;;;;5040509;28;20202;-70
2022/12/13 09:43:51;;;;;;;27.97;14.37;;;-0.40;99.90;;;;;;5047137;28;20296;-69
2022/12/13 09:46:33;;;;;;;28.30;14.97;;;-0.40;99.90;;;;;;5048986;28;20292;-70
2022/12/13 09:49:02;;;;;;;28.80;15.33;;;-0.40;99.90;;;;;;5044759;28;20199;-69
2022/12/13 09:51:30;;;;;;;27.47;14.67;;;-0.40;99.90;;;;;;5049248;28;20169;-71
2022/12/13 09:53:56;;;;;;;25.63;14.37;;;-0.50;99.90;;;;;;5048139;28;20186;-69
2022/12/13 09:56:25;;;;;;;30.03;14.83;;;-0.40;99.90;;;;;;5046417;28;20210;-70
2022/12/13 09:58:52;;;;;;;26.67;15.40;;;-0.30;99.90;;;;;;5048842;28;20602;-69
2022/12/13 10:01:19;;;;;;;27.60;15.90;;;-0.40;99.90;;;;;;5039976;28;20234;-71
2022/12/13 10:03:48;;;;;;;29.20;15.83;;;-0.30;99.90;;;;;;5046467;28;20309;-70
2022/12/13 10:06:22;;;;;;;29.93;15.37;;;-0.30;99.90;;;;;;5043099;28;20231;-68
2022/12/13 10:08:56;;;;;;;30.30;15.87;;;-0.30;99.90;;;;;;5047196;28;20171;-70
2022/12/13 10:11:22;;;;;;;30.50;15.93;;;-0.40;99.90;;;;;;5048790;28;20830;-70
2022/12/13 10:13:58;;;;;;;30.93;14.40;;;-0.30;99.90;;;;;;5047478;28;20226;-69
2022/12/13 10:16:48;;;;;;;27.23;15.23;;;-0.30;99.90;;;;;;5047216;28;20213;-70
2022/12/13 10:19:32;;;;;;;26.63;14.10;;;-0.30;99.90;;;;;;5045156;28;20581;-69
2022/12/13 10:21:59;;;;;;;24.00;13.83;;;-0.20;99.90;;;;;;5041652;28;20209;-70
2022/12/13 10:24:31;;;;;;;27.30;13.90;;;-0.30;99.90;;;;;;5047460;28;20279;-70
2022/12/13 10:27:15;;;;;;;23.70;12.70;;;-0.30;99.90;;;;;;5042271;28;20199;-69
2022/12/13 10:30:24;;;;;;;21.13;11.83;;;-0.40;99.90;;;;;;5041870;28;20191;-69
2022/12/13 10:33:02;;;;;;;22.73;12.30;;;-0.40;99.90;;;;;;4988687;28;20210;-68
2022/12/13 10:35:37;;;;;;;21.27;12.13;;;-0.40;99.90;;;;;;4970945;28;20200;-70
2022/12/13 10:38:27;;;;;;;24.33;12.97;;;-0.30;99.90;;;;;;5027173;28;20215;-69
2022/12/13 10:40:53;;;;;;;21.30;12.27;;;-0.50;99.90;;;;;;5032987;28;20230;-69
2022/12/13 10:43:20;;;;;;;26.83;13.37;;;-0.50;99.90;;;;;;5043793;28;20580;-71
2022/12/13 10:45:58;;;;;;;25.10;13.27;;;-0.40;99.90;;;;;;5048250;28;20214;-70
2022/12/13 10:48:37;;;;;;;24.87;12.97;;;-0.10;99.90;;;;;;5043517;28;20198;-69
2022/12/13 10:51:10;;;;;;;21.53;12.13;;;-0.30;99.90;;;;;;5045518;28;20181;-70
2022/12/13 10:53:57;;;;;;;22.77;11.93;;;-0.40;99.90;;;;;;5046584;28;20217;-69
2022/12/13 10:56:35;;;;;;;21.37;12.57;;;-0.30;99.90;;;;;;5044541;28;20224;-69
2022/12/13 10:59:14;;;;;;;24.47;12.47;;;-0.30;99.90;;;;;;5044691;28;20235;-68
2022/12/13 11:01:40;;;;;;;20.37;12.27;;;-0.10;99.90;;;;;;5041985;28;20213;-69
2022/12/13 11:04:26;;;;;;;20.10;11.67;;;-0.10;99.90;;;;;;5044210;28;20299;-70
2022/12/13 11:06:52;;;;;;;24.57;12.93;;;-0.10;99.90;;;;;;5049378;28;20297;-70
2022/12/13 11:09:27;;;;;;;26.17;14.53;;;-0.10;99.90;;;;;;5040945;28;20208;-69
2022/12/13 11:11:55;;;;;;;21.43;12.43;;;0.00;99.90;;;;;;5046201;28;20196;-70
2022/12/13 11:14:25;;;;;;;24.43;13.07;;;0.00;99.90;;;;;;5046713;28;20281;-70
2022/12/13 11:16:56;;;;;;;25.00;13.87;;;0.00;99.90;;;;;;5044213;28;20215;-71
2022/12/13 11:19:44;;;;;;;24.70;13.03;;;0.00;99.90;;;;;;5048292;28;20208;-71
2022/12/13 11:22:23;;;;;;;21.30;12.27;;;0.00;99.90;;;;;;5038753;28;20684;-69
2022/12/13 11:24:54;;;;;;;20.97;12.77;;;0.20;99.90;;;;;;5044414;28;20225;-71
2022/12/13 11:27:38;;;;;;;26.77;14.07;;;0.20;99.90;;;;;;5045938;28;20195;-70
2022/12/13 11:30:11;;;;;;;21.43;12.93;;;0.20;99.90;;;;;;5042557;28;20257;-67
2022/12/13 11:32:46;;;;;;;21.13;11.47;;;0.20;99.90;;;;;;5045714;28;20220;-70
2022/12/13 11:35:19;;;;;;;24.73;11.87;;;0.10;99.90;;;;;;5042360;28;20221;-70
2022/12/13 11:37:54;;;;;;;21.63;12.13;;;0.10;99.90;;;;;;5043135;28;20215;-70
2022/12/13 11:40:31;;;;;;;22.43;12.13;;;0.10;99.90;;;;;;5047849;28;20215;-70
2022/12/13 11:43:03;;;;;;;21.70;12.07;;;0.10;99.90;;;;;;5054781;28;20249;-70
2022/12/13 11:45:45;;;;;;;19.63;11.30;;;0.20;99.90;;;;;;5046771;28;20225;-70
2022/12/13 11:48:42;;;;;;;21.90;12.17;;;0.00;99.90;;;;;;5043180;28;20195;-69
2022/12/13 11:51:10;;;;;;;22.00;11.70;;;0.10;99.90;;;;;;5043130;28;20172;-70
2022/12/13 11:53:59;;;;;;;22.80;11.70;;;0.10;99.90;;;;;;5048886;28;20210;-70
2022/12/13 11:56:30;;;;;;;23.00;12.40;;;0.10;99.90;;;;;;5044180;28;20215;-70
2022/12/13 11:59:11;;;;;;;22.90;12.23;;;0.10;99.90;;;;;;5045846;28;20212;-71
2022/12/13 12:01:52;;;;;;;20.17;11.57;;;0.10;99.90;;;;;;5042323;28;20210;-71
2022/12/13 12:04:42;;;;;;;22.07;11.27;;;0.10;99.90;;;;;;5042935;28;20254;-69
2022/12/13 12:07:24;;;;;;;21.07;11.47;;;0.10;99.90;;;;;;5046128;28;20218;-70
2022/12/13 12:09:57;;;;;;;20.40;11.60;;;0.10;99.90;;;;;;5039603;28;20242;-69
2022/12/13 12:12:30;;;;;;;22.33;11.80;;;0.20;99.90;;;;;;5048613;28;20205;-70
2022/12/13 12:15:09;;;;;;;21.13;11.97;;;0.20;99.90;;;;;;5046573;28;20198;-70
2022/12/13 12:17:34;;;;;;;23.83;11.67;;;0.20;99.90;;;;;;5048359;28;20219;-68
2022/12/13 12:20:01;;;;;;;20.37;11.30;;;0.30;99.90;;;;;;5049668;28;20203;-68
2022/12/13 12:22:42;;;;;;;19.70;11.10;;;0.20;99.90;;;;;;5045405;28;20202;-69
2022/12/13 12:25:25;;;;;;;21.77;10.83;;;0.20;99.90;;;;;;5046210;28;20204;-68
2022/12/13 12:28:17;;;;;;;20.97;11.43;;;0.30;99.90;;;;;;5051047;28;20217;-67
2022/12/13 12:31:34;;;;;;;20.53;11.50;;;0.30;99.90;;;;;;5043466;28;20766;-68
2022/12/13 12:34:18;;;;;;;20.17;11.80;;;0.40;99.90;;;;;;5030024;28;20619;-67
2022/12/13 12:36:49;;;;;;;23.87;12.33;;;0.40;99.90;;;;;;5046564;28;20210;-69
2022/12/13 12:39:42;;;;;;;17.93;10.80;;;0.50;99.90;;;;;;5047524;28;20180;-68
2022/12/13 12:42:35;;;;;;;19.43;11.53;;;0.50;99.90;;;;;;5045627;28;20554;-69
2022/12/13 12:45:30;;;;;;;18.80;11.40;;;0.40;99.90;;;;;;5047296;28;20218;-67
2022/12/13 12:48:29;;;;;;;19.67;11.17;;;0.30;99.90;;;;;;5051264;28;20220;-67